sensor_id;sensor_type;location;lat;lon;timestamp;P1;durP1;ratioP1;P2;durP2;ratioP2
8538;SDS011;4307;53.868;11.680;2022-09-09T00:00:25;12.30;;;9.13;;
8538;SDS011;4307;53.868;11.680;2022-09-09T00:02:57;14.17;;;9.10;;
8538;SDS011;4307;53.868;11.680;2022-09-09T00:05:31;11.60;;;8.57;;
8538;SDS011;4307;53.868;11.680;2022-09-09T00:08:03;14.73;;;9.83;;
8538;SDS011;4307;53.868;11.680;2022-09-09T00:10:31;15.63;;;10.10;;
8538;SDS011;4307;53.868;11.680;2022-09-09T00:13:02;13.27;;;9.53;;
8538;SDS011;4307;53.868;11.680;2022-09-09T00:15:42;11.30;;;8.83;;
8538;SDS011;4307;53.868;11.680;2022-09-09T00:18:17;14.77;;;9.37;;
8538;SDS011;4307;53.868;11.680;2022-09-09T00:20:54;14.07;;;10.10;;
8538;SDS011;4307;53.868;11.680;2022-09-09T00:23:28;12.90;;;9.77;;
8538;SDS011;4307;53.868;11.680;2022-09-09T00:25:59;16.03;;;10.20;;
8538;SDS011;4307;53.868;11.680;2022-09-09T00:28:32;17.20;;;11.57;;
8538;SDS011;4307;53.868;11.680;2022-09-09T00:31:08;20.60;;;13.43;;
8538;SDS011;4307;53.868;11.680;2022-09-09T00:33:38;23.47;;;13.00;;
8538;SDS011;4307;53.868;11.680;2022-09-09T00:36:09;24.33;;;15.20;;
8538;SDS011;4307;53.868;11.680;2022-09-09T00:38:41;26.10;;;14.73;;
8538;SDS011;4307;53.868;11.680;2022-09-09T00:41:11;24.47;;;13.13;;
8538;SDS011;4307;53.868;11.680;2022-09-09T00:43:46;26.50;;;14.43;;
8538;SDS011;4307;53.868;11.680;2022-09-09T00:49:15;22.13;;;13.67;;
8538;SDS011;4307;53.868;11.680;2022-09-09T00:51:54;21.13;;;13.87;;
8538;SDS011;4307;53.868;11.680;2022-09-09T00:54:34;26.50;;;15.53;;
8538;SDS011;4307;53.868;11.680;2022-09-09T00:57:11;23.37;;;14.73;;
8538;SDS011;4307;53.868;11.680;2022-09-09T00:59:46;26.80;;;15.67;;
8538;SDS011;4307;53.868;11.680;2022-09-09T01:02:18;22.60;;;15.03;;
8538;SDS011;4307;53.868;11.680;2022-09-09T01:04:53;27.77;;;16.43;;
8538;SDS011;4307;53.868;11.680;2022-09-09T01:07:21;41.63;;;18.70;;
8538;SDS011;4307;53.868;11.680;2022-09-09T01:09:52;26.80;;;15.87;;
8538;SDS011;4307;53.868;11.680;2022-09-09T01:12:26;24.07;;;15.63;;
8538;SDS011;4307;53.868;11.680;2022-09-09T01:15:01;26.47;;;17.23;;
8538;SDS011;4307;53.868;11.680;2022-09-09T01:17:44;23.80;;;15.90;;
8538;SDS011;4307;53.868;11.680;2022-09-09T01:20:17;27.20;;;15.55;;
8538;SDS011;4307;53.868;11.680;2022-09-09T01:22:50;27.93;;;16.40;;
8538;SDS011;4307;53.868;11.680;2022-09-09T01:28:34;30.80;;;18.03;;
8538;SDS011;4307;53.868;11.680;2022-09-09T01:31:02;28.13;;;16.97;;
8538;SDS011;4307;53.868;11.680;2022-09-09T01:33:29;27.87;;;17.67;;
8538;SDS011;4307;53.868;11.680;2022-09-09T01:35:57;29.40;;;16.77;;
8538;SDS011;4307;53.868;11.680;2022-09-09T01:38:29;30.43;;;16.73;;
8538;SDS011;4307;53.868;11.680;2022-09-09T01:40:57;27.53;;;17.07;;
8538;SDS011;4307;53.868;11.680;2022-09-09T01:43:26;27.00;;;16.90;;
8538;SDS011;4307;53.868;11.680;2022-09-09T01:45:54;28.30;;;16.57;;
8538;SDS011;4307;53.868;11.680;2022-09-09T01:48:24;29.13;;;17.10;;
8538;SDS011;4307;53.868;11.680;2022-09-09T01:50:52;28.17;;;16.37;;
8538;SDS011;4307;53.868;11.680;2022-09-09T01:53:19;27.13;;;15.77;;
8538;SDS011;4307;53.868;11.680;2022-09-09T01:55:48;26.33;;;16.17;;
8538;SDS011;4307;53.868;11.680;2022-09-09T01:58:31;26.57;;;16.10;;
8538;SDS011;4307;53.868;11.680;2022-09-09T02:01:06;23.43;;;15.73;;
8538;SDS011;4307;53.868;11.680;2022-09-09T02:03:38;23.87;;;16.03;;
8538;SDS011;4307;53.868;11.680;2022-09-09T02:06:13;23.53;;;15.40;;
8538;SDS011;4307;53.868;11.680;2022-09-09T02:08:48;24.57;;;15.77;;
8538;SDS011;4307;53.868;11.680;2022-09-09T02:11:17;24.27;;;16.37;;
8538;SDS011;4307;53.868;11.680;2022-09-09T02:13:47;27.40;;;15.87;;
8538;SDS011;4307;53.868;11.680;2022-09-09T02:16:18;29.63;;;16.20;;
8538;SDS011;4307;53.868;11.680;2022-09-09T02:18:50;25.27;;;16.40;;
8538;SDS011;4307;53.868;11.680;2022-09-09T02:21:20;25.70;;;16.33;;
8538;SDS011;4307;53.868;11.680;2022-09-09T02:23:48;28.63;;;16.27;;
8538;SDS011;4307;53.868;11.680;2022-09-09T02:26:18;27.57;;;16.67;;
8538;SDS011;4307;53.868;11.680;2022-09-09T02:28:50;24.50;;;15.87;;
8538;SDS011;4307;53.868;11.680;2022-09-09T02:31:20;25.70;;;15.53;;
8538;SDS011;4307;53.868;11.680;2022-09-09T02:33:50;26.40;;;16.23;;
8538;SDS011;4307;53.868;11.680;2022-09-09T02:36:19;24.30;;;15.60;;
8538;SDS011;4307;53.868;11.680;2022-09-09T02:38:49;24.87;;;16.53;;
8538;SDS011;4307;53.868;11.680;2022-09-09T02:41:19;26.33;;;15.67;;
8538;SDS011;4307;53.868;11.680;2022-09-09T02:43:50;27.10;;;16.63;;
8538;SDS011;4307;53.868;11.680;2022-09-09T02:46:25;26.17;;;16.10;;
8538;SDS011;4307;53.868;11.680;2022-09-09T02:49:04;27.63;;;16.40;;
8538;SDS011;4307;53.868;11.680;2022-09-09T02:51:36;31.60;;;16.17;;
8538;SDS011;4307;53.868;11.680;2022-09-09T02:54:14;26.67;;;16.93;;
8538;SDS011;4307;53.868;11.680;2022-09-09T02:56:48;27.50;;;16.33;;
8538;SDS011;4307;53.868;11.680;2022-09-09T02:59:20;28.23;;;16.30;;
8538;SDS011;4307;53.868;11.680;2022-09-09T03:01:47;29.00;;;17.00;;
8538;SDS011;4307;53.868;11.680;2022-09-09T03:04:14;31.67;;;18.23;;
8538;SDS011;4307;53.868;11.680;2022-09-09T03:06:40;24.97;;;15.00;;
8538;SDS011;4307;53.868;11.680;2022-09-09T03:09:07;26.27;;;16.70;;
8538;SDS011;4307;53.868;11.680;2022-09-09T03:11:35;28.03;;;17.40;;
8538;SDS011;4307;53.868;11.680;2022-09-09T03:14:03;28.27;;;16.87;;
8538;SDS011;4307;53.868;11.680;2022-09-09T03:16:31;29.83;;;16.87;;
8538;SDS011;4307;53.868;11.680;2022-09-09T03:18:59;28.33;;;15.90;;
8538;SDS011;4307;53.868;11.680;2022-09-09T03:21:26;26.43;;;16.17;;
8538;SDS011;4307;53.868;11.680;2022-09-09T03:23:52;25.30;;;15.93;;
8538;SDS011;4307;53.868;11.680;2022-09-09T03:26:19;31.03;;;16.67;;
8538;SDS011;4307;53.868;11.680;2022-09-09T03:28:46;28.77;;;17.00;;
8538;SDS011;4307;53.868;11.680;2022-09-09T03:31:13;30.27;;;17.37;;
8538;SDS011;4307;53.868;11.680;2022-09-09T03:33:41;27.10;;;15.27;;
8538;SDS011;4307;53.868;11.680;2022-09-09T03:36:08;28.60;;;17.33;;
8538;SDS011;4307;53.868;11.680;2022-09-09T03:38:35;34.13;;;18.77;;
8538;SDS011;4307;53.868;11.680;2022-09-09T03:41:02;33.57;;;18.10;;
8538;SDS011;4307;53.868;11.680;2022-09-09T03:43:31;36.30;;;18.70;;
8538;SDS011;4307;53.868;11.680;2022-09-09T03:45:57;37.93;;;18.77;;
8538;SDS011;4307;53.868;11.680;2022-09-09T03:48:24;36.97;;;18.97;;
8538;SDS011;4307;53.868;11.680;2022-09-09T03:50:54;43.90;;;19.33;;
8538;SDS011;4307;53.868;11.680;2022-09-09T03:53:23;48.73;;;20.60;;
8538;SDS011;4307;53.868;11.680;2022-09-09T03:55:51;55.70;;;20.07;;
8538;SDS011;4307;53.868;11.680;2022-09-09T03:58:20;53.03;;;19.00;;
8538;SDS011;4307;53.868;11.680;2022-09-09T04:00:52;44.10;;;17.97;;
8538;SDS011;4307;53.868;11.680;2022-09-09T04:03:20;46.30;;;19.07;;
8538;SDS011;4307;53.868;11.680;2022-09-09T04:05:48;42.33;;;16.80;;
8538;SDS011;4307;53.868;11.680;2022-09-09T04:08:16;48.83;;;17.80;;
8538;SDS011;4307;53.868;11.680;2022-09-09T04:10:44;46.20;;;18.63;;
8538;SDS011;4307;53.868;11.680;2022-09-09T04:13:12;47.80;;;17.67;;
8538;SDS011;4307;53.868;11.680;2022-09-09T04:15:40;45.87;;;17.77;;
8538;SDS011;4307;53.868;11.680;2022-09-09T04:18:07;45.13;;;17.83;;
8538;SDS011;4307;53.868;11.680;2022-09-09T04:20:34;36.33;;;16.43;;
8538;SDS011;4307;53.868;11.680;2022-09-09T04:23:00;36.53;;;16.27;;
8538;SDS011;4307;53.868;11.680;2022-09-09T04:25:29;37.73;;;16.33;;
8538;SDS011;4307;53.868;11.680;2022-09-09T04:27:56;30.43;;;13.43;;
8538;SDS011;4307;53.868;11.680;2022-09-09T04:30:23;38.27;;;15.83;;
8538;SDS011;4307;53.868;11.680;2022-09-09T04:32:52;33.67;;;14.50;;
8538;SDS011;4307;53.868;11.680;2022-09-09T04:35:18;29.40;;;13.93;;
8538;SDS011;4307;53.868;11.680;2022-09-09T04:37:45;35.27;;;15.20;;
8538;SDS011;4307;53.868;11.680;2022-09-09T04:40:12;32.67;;;14.10;;
8538;SDS011;4307;53.868;11.680;2022-09-09T04:42:41;30.50;;;14.27;;
8538;SDS011;4307;53.868;11.680;2022-09-09T04:45:09;29.77;;;13.77;;
8538;SDS011;4307;53.868;11.680;2022-09-09T04:47:37;32.30;;;16.37;;
8538;SDS011;4307;53.868;11.680;2022-09-09T04:50:04;42.53;;;17.43;;
8538;SDS011;4307;53.868;11.680;2022-09-09T04:52:33;37.03;;;17.20;;
8538;SDS011;4307;53.868;11.680;2022-09-09T04:55:00;33.60;;;16.77;;
8538;SDS011;4307;53.868;11.680;2022-09-09T04:57:26;41.27;;;18.60;;
8538;SDS011;4307;53.868;11.680;2022-09-09T04:59:55;39.63;;;18.60;;
8538;SDS011;4307;53.868;11.680;2022-09-09T05:02:21;43.23;;;22.03;;
8538;SDS011;4307;53.868;11.680;2022-09-09T05:04:48;45.50;;;21.47;;
8538;SDS011;4307;53.868;11.680;2022-09-09T05:07:15;41.83;;;20.80;;
8538;SDS011;4307;53.868;11.680;2022-09-09T05:09:42;47.97;;;24.87;;
8538;SDS011;4307;53.868;11.680;2022-09-09T05:12:09;44.00;;;23.20;;
8538;SDS011;4307;53.868;11.680;2022-09-09T05:14:36;45.17;;;26.03;;
8538;SDS011;4307;53.868;11.680;2022-09-09T05:17:04;47.10;;;27.17;;
8538;SDS011;4307;53.868;11.680;2022-09-09T05:19:31;43.83;;;25.87;;
8538;SDS011;4307;53.868;11.680;2022-09-09T05:21:57;46.17;;;27.40;;
8538;SDS011;4307;53.868;11.680;2022-09-09T05:24:24;38.30;;;22.67;;
8538;SDS011;4307;53.868;11.680;2022-09-09T05:26:50;42.70;;;24.03;;
8538;SDS011;4307;53.868;11.680;2022-09-09T05:29:17;39.27;;;25.70;;
8538;SDS011;4307;53.868;11.680;2022-09-09T05:31:44;46.40;;;26.63;;
8538;SDS011;4307;53.868;11.680;2022-09-09T05:34:13;44.10;;;27.57;;
8538;SDS011;4307;53.868;11.680;2022-09-09T05:36:39;43.90;;;27.43;;
8538;SDS011;4307;53.868;11.680;2022-09-09T05:39:06;47.47;;;26.37;;
8538;SDS011;4307;53.868;11.680;2022-09-09T05:41:33;41.50;;;27.60;;
8538;SDS011;4307;53.868;11.680;2022-09-09T05:44:00;44.77;;;29.33;;
8538;SDS011;4307;53.868;11.680;2022-09-09T05:46:28;44.53;;;27.93;;
8538;SDS011;4307;53.868;11.680;2022-09-09T05:48:55;45.77;;;29.43;;
8538;SDS011;4307;53.868;11.680;2022-09-09T05:51:25;44.27;;;28.53;;
8538;SDS011;4307;53.868;11.680;2022-09-09T05:53:55;47.90;;;28.17;;
8538;SDS011;4307;53.868;11.680;2022-09-09T05:56:23;43.67;;;27.67;;
8538;SDS011;4307;53.868;11.680;2022-09-09T05:58:52;42.70;;;26.00;;
8538;SDS011;4307;53.868;11.680;2022-09-09T06:01:20;44.77;;;27.07;;
8538;SDS011;4307;53.868;11.680;2022-09-09T06:03:48;44.60;;;28.23;;
8538;SDS011;4307;53.868;11.680;2022-09-09T06:06:16;46.37;;;28.23;;
8538;SDS011;4307;53.868;11.680;2022-09-09T06:08:47;44.83;;;26.63;;
8538;SDS011;4307;53.868;11.680;2022-09-09T06:11:17;40.73;;;24.67;;
8538;SDS011;4307;53.868;11.680;2022-09-09T06:13:45;33.50;;;21.63;;
8538;SDS011;4307;53.868;11.680;2022-09-09T06:16:13;31.03;;;19.77;;
8538;SDS011;4307;53.868;11.680;2022-09-09T06:18:40;40.17;;;23.63;;
8538;SDS011;4307;53.868;11.680;2022-09-09T06:21:09;34.43;;;21.77;;
8538;SDS011;4307;53.868;11.680;2022-09-09T06:23:40;37.00;;;22.73;;
8538;SDS011;4307;53.868;11.680;2022-09-09T06:26:09;28.37;;;18.33;;
8538;SDS011;4307;53.868;11.680;2022-09-09T06:28:37;31.93;;;22.00;;
8538;SDS011;4307;53.868;11.680;2022-09-09T06:31:05;33.83;;;22.60;;
8538;SDS011;4307;53.868;11.680;2022-09-09T06:33:34;37.07;;;23.63;;
8538;SDS011;4307;53.868;11.680;2022-09-09T06:36:06;37.20;;;22.37;;
8538;SDS011;4307;53.868;11.680;2022-09-09T06:38:36;32.80;;;19.63;;
8538;SDS011;4307;53.868;11.680;2022-09-09T06:41:03;32.70;;;21.47;;
8538;SDS011;4307;53.868;11.680;2022-09-09T06:43:32;30.67;;;21.47;;
8538;SDS011;4307;53.868;11.680;2022-09-09T06:46:01;28.90;;;19.93;;
8538;SDS011;4307;53.868;11.680;2022-09-09T06:48:29;33.53;;;23.30;;
8538;SDS011;4307;53.868;11.680;2022-09-09T06:51:00;36.37;;;24.27;;
8538;SDS011;4307;53.868;11.680;2022-09-09T06:53:27;40.07;;;24.67;;
8538;SDS011;4307;53.868;11.680;2022-09-09T06:55:54;35.47;;;23.43;;
8538;SDS011;4307;53.868;11.680;2022-09-09T06:58:21;33.00;;;20.90;;
8538;SDS011;4307;53.868;11.680;2022-09-09T07:00:49;33.57;;;22.23;;
8538;SDS011;4307;53.868;11.680;2022-09-09T07:03:16;39.40;;;23.90;;
8538;SDS011;4307;53.868;11.680;2022-09-09T07:05:42;37.17;;;26.10;;
8538;SDS011;4307;53.868;11.680;2022-09-09T07:08:10;36.00;;;25.13;;
8538;SDS011;4307;53.868;11.680;2022-09-09T07:10:37;36.47;;;24.90;;
8538;SDS011;4307;53.868;11.680;2022-09-09T07:13:04;31.90;;;23.53;;
8538;SDS011;4307;53.868;11.680;2022-09-09T07:15:30;31.53;;;20.50;;
8538;SDS011;4307;53.868;11.680;2022-09-09T07:18:01;30.70;;;23.43;;
8538;SDS011;4307;53.868;11.680;2022-09-09T07:20:28;34.10;;;23.97;;
8538;SDS011;4307;53.868;11.680;2022-09-09T07:22:55;30.40;;;22.67;;
8538;SDS011;4307;53.868;11.680;2022-09-09T07:25:23;32.10;;;22.33;;
8538;SDS011;4307;53.868;11.680;2022-09-09T07:27:51;29.83;;;22.00;;
8538;SDS011;4307;53.868;11.680;2022-09-09T07:30:18;32.17;;;20.37;;
8538;SDS011;4307;53.868;11.680;2022-09-09T07:32:45;27.20;;;18.83;;
8538;SDS011;4307;53.868;11.680;2022-09-09T07:35:13;30.60;;;20.90;;
8538;SDS011;4307;53.868;11.680;2022-09-09T07:37:39;26.57;;;19.60;;
8538;SDS011;4307;53.868;11.680;2022-09-09T07:40:06;22.93;;;17.67;;
8538;SDS011;4307;53.868;11.680;2022-09-09T07:42:33;25.70;;;19.67;;
8538;SDS011;4307;53.868;11.680;2022-09-09T07:45:00;23.93;;;19.73;;
8538;SDS011;4307;53.868;11.680;2022-09-09T07:47:27;24.47;;;17.57;;
8538;SDS011;4307;53.868;11.680;2022-09-09T07:49:53;21.17;;;16.60;;
8538;SDS011;4307;53.868;11.680;2022-09-09T07:52:22;22.37;;;17.37;;
8538;SDS011;4307;53.868;11.680;2022-09-09T07:54:49;21.80;;;17.37;;
8538;SDS011;4307;53.868;11.680;2022-09-09T07:57:15;18.73;;;16.33;;
8538;SDS011;4307;53.868;11.680;2022-09-09T07:59:42;17.00;;;15.20;;
8538;SDS011;4307;53.868;11.680;2022-09-09T08:02:09;19.43;;;16.50;;
8538;SDS011;4307;53.868;11.680;2022-09-09T08:04:36;21.10;;;15.70;;
8538;SDS011;4307;53.868;11.680;2022-09-09T08:07:03;20.13;;;15.13;;
8538;SDS011;4307;53.868;11.680;2022-09-09T08:09:31;18.60;;;14.17;;
8538;SDS011;4307;53.868;11.680;2022-09-09T08:11:58;19.20;;;15.20;;
8538;SDS011;4307;53.868;11.680;2022-09-09T08:14:26;16.20;;;13.87;;
8538;SDS011;4307;53.868;11.680;2022-09-09T08:16:53;17.10;;;13.07;;
8538;SDS011;4307;53.868;11.680;2022-09-09T08:19:20;15.90;;;13.53;;
8538;SDS011;4307;53.868;11.680;2022-09-09T08:21:46;16.27;;;12.23;;
8538;SDS011;4307;53.868;11.680;2022-09-09T08:24:14;15.60;;;12.93;;
8538;SDS011;4307;53.868;11.680;2022-09-09T08:26:42;13.53;;;11.30;;
8538;SDS011;4307;53.868;11.680;2022-09-09T08:29:10;12.10;;;10.87;;
8538;SDS011;4307;53.868;11.680;2022-09-09T08:31:39;13.63;;;11.30;;
8538;SDS011;4307;53.868;11.680;2022-09-09T08:34:07;14.17;;;11.37;;
8538;SDS011;4307;53.868;11.680;2022-09-09T08:36:37;11.73;;;10.50;;
8538;SDS011;4307;53.868;11.680;2022-09-09T08:39:05;12.47;;;10.87;;
8538;SDS011;4307;53.868;11.680;2022-09-09T08:44:29;11.90;;;10.67;;
8538;SDS011;4307;53.868;11.680;2022-09-09T08:47:04;12.67;;;11.37;;
8538;SDS011;4307;53.868;11.680;2022-09-09T08:49:50;12.83;;;11.00;;
8538;SDS011;4307;53.868;11.680;2022-09-09T08:52:28;14.10;;;10.80;;
8538;SDS011;4307;53.868;11.680;2022-09-09T08:54:56;12.90;;;9.77;;
8538;SDS011;4307;53.868;11.680;2022-09-09T08:57:30;11.77;;;9.83;;
8538;SDS011;4307;53.868;11.680;2022-09-09T08:59:58;10.83;;;9.83;;
8538;SDS011;4307;53.868;11.680;2022-09-09T09:02:25;10.43;;;8.97;;
8538;SDS011;4307;53.868;11.680;2022-09-09T09:05:02;12.13;;;9.27;;
8538;SDS011;4307;53.868;11.680;2022-09-09T09:07:38;10.27;;;9.20;;
8538;SDS011;4307;53.868;11.680;2022-09-09T09:10:13;11.40;;;9.23;;
8538;SDS011;4307;53.868;11.680;2022-09-09T09:12:47;10.20;;;9.17;;
8538;SDS011;4307;53.868;11.680;2022-09-09T09:15:17;8.67;;;7.77;;
8538;SDS011;4307;53.868;11.680;2022-09-09T09:17:46;8.30;;;7.50;;
8538;SDS011;4307;53.868;11.680;2022-09-09T09:20:15;7.10;;;6.50;;
8538;SDS011;4307;53.868;11.680;2022-09-09T09:22:47;8.87;;;6.77;;
8538;SDS011;4307;53.868;11.680;2022-09-09T09:25:16;9.00;;;7.50;;
8538;SDS011;4307;53.868;11.680;2022-09-09T09:27:49;9.97;;;6.93;;
8538;SDS011;4307;53.868;11.680;2022-09-09T09:30:23;7.97;;;7.20;;
8538;SDS011;4307;53.868;11.680;2022-09-09T09:32:52;8.77;;;7.87;;
8538;SDS011;4307;53.868;11.680;2022-09-09T09:35:21;7.50;;;6.63;;
8538;SDS011;4307;53.868;11.680;2022-09-09T09:37:48;9.53;;;7.53;;
8538;SDS011;4307;53.868;11.680;2022-09-09T09:40:16;9.23;;;8.17;;
8538;SDS011;4307;53.868;11.680;2022-09-09T09:42:49;10.17;;;8.07;;
8538;SDS011;4307;53.868;11.680;2022-09-09T09:45:22;8.40;;;7.20;;
8538;SDS011;4307;53.868;11.680;2022-09-09T09:47:57;9.97;;;7.67;;
8538;SDS011;4307;53.868;11.680;2022-09-09T09:50:25;9.20;;;7.90;;
8538;SDS011;4307;53.868;11.680;2022-09-09T09:52:55;8.80;;;7.53;;
8538;SDS011;4307;53.868;11.680;2022-09-09T09:55:23;9.57;;;8.57;;
8538;SDS011;4307;53.868;11.680;2022-09-09T09:57:52;8.53;;;7.73;;
8538;SDS011;4307;53.868;11.680;2022-09-09T10:00:20;8.13;;;7.33;;
8538;SDS011;4307;53.868;11.680;2022-09-09T10:02:49;7.87;;;7.03;;
8538;SDS011;4307;53.868;11.680;2022-09-09T10:05:18;8.83;;;7.93;;
8538;SDS011;4307;53.868;11.680;2022-09-09T10:07:46;8.13;;;7.17;;
8538;SDS011;4307;53.868;11.680;2022-09-09T10:10:25;8.10;;;7.23;;
8538;SDS011;4307;53.868;11.680;2022-09-09T10:13:00;7.53;;;6.73;;
8538;SDS011;4307;53.868;11.680;2022-09-09T10:15:36;8.83;;;6.77;;
8538;SDS011;4307;53.868;11.680;2022-09-09T10:18:17;7.40;;;6.70;;
8538;SDS011;4307;53.868;11.680;2022-09-09T10:21:06;8.93;;;6.47;;
8538;SDS011;4307;53.868;11.680;2022-09-09T10:23:54;6.87;;;6.27;;
8538;SDS011;4307;53.868;11.680;2022-09-09T10:26:44;6.17;;;5.57;;
8538;SDS011;4307;53.868;11.680;2022-09-09T10:29:26;7.23;;;6.63;;
8538;SDS011;4307;53.868;11.680;2022-09-09T10:32:09;7.07;;;6.20;;
8538;SDS011;4307;53.868;11.680;2022-09-09T10:34:55;7.93;;;5.83;;
8538;SDS011;4307;53.868;11.680;2022-09-09T10:37:29;7.20;;;5.43;;
8538;SDS011;4307;53.868;11.680;2022-09-09T10:40:12;6.30;;;5.70;;
8538;SDS011;4307;53.868;11.680;2022-09-09T10:42:47;6.63;;;5.70;;
8538;SDS011;4307;53.868;11.680;2022-09-09T10:45:17;7.17;;;5.50;;
8538;SDS011;4307;53.868;11.680;2022-09-09T10:47:50;5.63;;;5.10;;
8538;SDS011;4307;53.868;11.680;2022-09-09T10:50:34;6.13;;;4.77;;
8538;SDS011;4307;53.868;11.680;2022-09-09T10:53:08;5.60;;;5.00;;
8538;SDS011;4307;53.868;11.680;2022-09-09T10:55:45;10.97;;;4.97;;
8538;SDS011;4307;53.868;11.680;2022-09-09T10:58:17;5.60;;;5.10;;
8538;SDS011;4307;53.868;11.680;2022-09-09T11:00:52;6.27;;;5.00;;
8538;SDS011;4307;53.868;11.680;2022-09-09T11:03:23;5.70;;;4.53;;
8538;SDS011;4307;53.868;11.680;2022-09-09T11:05:53;6.97;;;4.30;;
8538;SDS011;4307;53.868;11.680;2022-09-09T11:08:24;6.07;;;4.90;;
8538;SDS011;4307;53.868;11.680;2022-09-09T11:10:53;5.57;;;4.27;;
8538;SDS011;4307;53.868;11.680;2022-09-09T11:13:26;10.20;;;4.60;;
8538;SDS011;4307;53.868;11.680;2022-09-09T11:16:04;5.93;;;4.90;;
8538;SDS011;4307;53.868;11.680;2022-09-09T11:18:39;5.47;;;5.07;;
8538;SDS011;4307;53.868;11.680;2022-09-09T11:21:10;4.50;;;4.07;;
8538;SDS011;4307;53.868;11.680;2022-09-09T11:23:44;5.30;;;4.80;;
8538;SDS011;4307;53.868;11.680;2022-09-09T11:26:16;5.30;;;4.63;;
8538;SDS011;4307;53.868;11.680;2022-09-09T11:28:52;6.87;;;4.50;;
8538;SDS011;4307;53.868;11.680;2022-09-09T11:31:35;4.67;;;4.23;;
8538;SDS011;4307;53.868;11.680;2022-09-09T11:34:17;5.90;;;4.50;;
8538;SDS011;4307;53.868;11.680;2022-09-09T11:37:04;5.83;;;4.97;;
8538;SDS011;4307;53.868;11.680;2022-09-09T11:39:49;7.27;;;5.73;;
8538;SDS011;4307;53.868;11.680;2022-09-09T11:42:41;6.50;;;5.00;;
8538;SDS011;4307;53.868;11.680;2022-09-09T11:45:08;6.63;;;4.67;;
8538;SDS011;4307;53.868;11.680;2022-09-09T11:47:39;5.20;;;4.23;;
8538;SDS011;4307;53.868;11.680;2022-09-09T11:50:10;4.40;;;3.43;;
8538;SDS011;4307;53.868;11.680;2022-09-09T11:53:02;4.87;;;3.80;;
8538;SDS011;4307;53.868;11.680;2022-09-09T11:55:32;4.77;;;3.27;;
8538;SDS011;4307;53.868;11.680;2022-09-09T11:58:02;3.33;;;3.00;;
8538;SDS011;4307;53.868;11.680;2022-09-09T12:00:31;3.70;;;3.40;;
8538;SDS011;4307;53.868;11.680;2022-09-09T12:03:03;3.40;;;3.03;;
8538;SDS011;4307;53.868;11.680;2022-09-09T12:05:37;3.90;;;3.17;;
8538;SDS011;4307;53.868;11.680;2022-09-09T12:08:07;2.90;;;2.70;;
8538;SDS011;4307;53.868;11.680;2022-09-09T12:10:38;3.23;;;2.90;;
8538;SDS011;4307;53.868;11.680;2022-09-09T12:13:15;4.43;;;3.00;;
8538;SDS011;4307;53.868;11.680;2022-09-09T12:15:47;8.97;;;4.07;;
8538;SDS011;4307;53.868;11.680;2022-09-09T12:18:18;4.13;;;3.60;;
8538;SDS011;4307;53.868;11.680;2022-09-09T12:20:51;4.47;;;2.57;;
8538;SDS011;4307;53.868;11.680;2022-09-09T12:23:25;2.60;;;2.40;;
8538;SDS011;4307;53.868;11.680;2022-09-09T12:26:07;3.83;;;2.67;;
8538;SDS011;4307;53.868;11.680;2022-09-09T12:28:52;3.53;;;2.53;;
8538;SDS011;4307;53.868;11.680;2022-09-09T12:31:27;4.57;;;2.37;;
8538;SDS011;4307;53.868;11.680;2022-09-09T12:34:04;3.53;;;2.37;;
8538;SDS011;4307;53.868;11.680;2022-09-09T12:36:37;4.63;;;2.60;;
8538;SDS011;4307;53.868;11.680;2022-09-09T12:39:10;4.30;;;2.80;;
8538;SDS011;4307;53.868;11.680;2022-09-09T12:41:50;3.97;;;2.43;;
8538;SDS011;4307;53.868;11.680;2022-09-09T12:44:22;3.97;;;2.77;;
8538;SDS011;4307;53.868;11.680;2022-09-09T12:46:49;3.17;;;2.67;;
8538;SDS011;4307;53.868;11.680;2022-09-09T12:49:28;4.17;;;2.50;;
8538;SDS011;4307;53.868;11.680;2022-09-09T12:51:59;3.13;;;2.50;;
8538;SDS011;4307;53.868;11.680;2022-09-09T12:54:30;3.50;;;2.20;;
8538;SDS011;4307;53.868;11.680;2022-09-09T12:56:57;2.50;;;2.30;;
8538;SDS011;4307;53.868;11.680;2022-09-09T12:59:24;4.00;;;2.30;;
8538;SDS011;4307;53.868;11.680;2022-09-09T13:01:56;3.37;;;2.03;;
8538;SDS011;4307;53.868;11.680;2022-09-09T13:04:23;2.90;;;2.40;;
8538;SDS011;4307;53.868;11.680;2022-09-09T13:06:51;1.80;;;1.70;;
8538;SDS011;4307;53.868;11.680;2022-09-09T13:09:18;2.97;;;2.20;;
8538;SDS011;4307;53.868;11.680;2022-09-09T13:11:45;4.23;;;2.00;;
8538;SDS011;4307;53.868;11.680;2022-09-09T13:14:16;3.10;;;2.00;;
8538;SDS011;4307;53.868;11.680;2022-09-09T13:16:53;3.60;;;1.93;;
8538;SDS011;4307;53.868;11.680;2022-09-09T13:19:22;2.27;;;1.73;;
8538;SDS011;4307;53.868;11.680;2022-09-09T13:21:52;3.10;;;1.70;;
8538;SDS011;4307;53.868;11.680;2022-09-09T13:24:25;2.33;;;2.10;;
8538;SDS011;4307;53.868;11.680;2022-09-09T13:26:55;2.90;;;2.10;;
8538;SDS011;4307;53.868;11.680;2022-09-09T13:29:22;3.17;;;2.13;;
8538;SDS011;4307;53.868;11.680;2022-09-09T13:31:49;4.13;;;1.90;;
8538;SDS011;4307;53.868;11.680;2022-09-09T13:34:25;5.53;;;2.40;;
8538;SDS011;4307;53.868;11.680;2022-09-09T13:36:55;2.50;;;2.20;;
8538;SDS011;4307;53.868;11.680;2022-09-09T13:39:26;2.80;;;2.33;;
8538;SDS011;4307;53.868;11.680;2022-09-09T13:41:52;2.33;;;1.73;;
8538;SDS011;4307;53.868;11.680;2022-09-09T13:44:20;3.97;;;2.40;;
8538;SDS011;4307;53.868;11.680;2022-09-09T13:46:59;3.53;;;2.37;;
8538;SDS011;4307;53.868;11.680;2022-09-09T13:49:28;4.93;;;3.40;;
8538;SDS011;4307;53.868;11.680;2022-09-09T13:52:04;4.63;;;2.80;;
8538;SDS011;4307;53.868;11.680;2022-09-09T13:54:34;12.80;;;2.87;;
8538;SDS011;4307;53.868;11.680;2022-09-09T13:57:01;2.63;;;2.20;;
8538;SDS011;4307;53.868;11.680;2022-09-09T13:59:29;3.00;;;2.80;;
8538;SDS011;4307;53.868;11.680;2022-09-09T14:01:56;4.77;;;3.10;;
8538;SDS011;4307;53.868;11.680;2022-09-09T14:04:23;2.73;;;2.40;;
8538;SDS011;4307;53.868;11.680;2022-09-09T14:06:49;3.57;;;2.70;;
8538;SDS011;4307;53.868;11.680;2022-09-09T14:09:18;5.97;;;2.70;;
8538;SDS011;4307;53.868;11.680;2022-09-09T14:11:45;4.53;;;3.23;;
8538;SDS011;4307;53.868;11.680;2022-09-09T14:14:11;5.03;;;3.13;;
8538;SDS011;4307;53.868;11.680;2022-09-09T14:16:38;3.50;;;2.90;;
8538;SDS011;4307;53.868;11.680;2022-09-09T14:19:05;3.43;;;2.93;;
8538;SDS011;4307;53.868;11.680;2022-09-09T14:21:31;3.67;;;2.80;;
8538;SDS011;4307;53.868;11.680;2022-09-09T14:23:58;5.10;;;2.90;;
8538;SDS011;4307;53.868;11.680;2022-09-09T14:26:26;3.73;;;3.20;;
8538;SDS011;4307;53.868;11.680;2022-09-09T14:28:53;4.43;;;3.10;;
8538;SDS011;4307;53.868;11.680;2022-09-09T14:31:21;4.43;;;3.37;;
8538;SDS011;4307;53.868;11.680;2022-09-09T14:33:48;5.20;;;3.50;;
8538;SDS011;4307;53.868;11.680;2022-09-09T14:36:15;4.63;;;4.10;;
8538;SDS011;4307;53.868;11.680;2022-09-09T14:38:42;4.17;;;3.60;;
8538;SDS011;4307;53.868;11.680;2022-09-09T14:41:09;6.07;;;4.10;;
8538;SDS011;4307;53.868;11.680;2022-09-09T14:43:38;4.57;;;3.63;;
8538;SDS011;4307;53.868;11.680;2022-09-09T14:46:05;4.37;;;3.47;;
8538;SDS011;4307;53.868;11.680;2022-09-09T14:48:32;5.53;;;3.40;;
8538;SDS011;4307;53.868;11.680;2022-09-09T14:51:04;3.80;;;3.13;;
8538;SDS011;4307;53.868;11.680;2022-09-09T14:53:31;3.70;;;3.40;;
8538;SDS011;4307;53.868;11.680;2022-09-09T14:56:02;4.10;;;3.23;;
8538;SDS011;4307;53.868;11.680;2022-09-09T14:58:30;5.17;;;3.30;;
8538;SDS011;4307;53.868;11.680;2022-09-09T15:01:02;5.80;;;3.47;;
8538;SDS011;4307;53.868;11.680;2022-09-09T15:03:30;5.40;;;3.30;;
8538;SDS011;4307;53.868;11.680;2022-09-09T15:05:57;5.50;;;3.43;;
8538;SDS011;4307;53.868;11.680;2022-09-09T15:08:24;8.37;;;4.50;;
8538;SDS011;4307;53.868;11.680;2022-09-09T15:10:51;9.23;;;4.50;;
8538;SDS011;4307;53.868;11.680;2022-09-09T15:13:25;8.27;;;4.83;;